sensor_id;sensor_type;location;lat;lon;timestamp;pressure;altitude;pressure_sealevel;temperature;humidity
1776;BME280;885;42.626;23.200;2023-02-12T00:01:11;75376.44;;;0.05;48.84
1776;BME280;885;42.626;23.200;2023-02-12T00:03:40;75366.13;;;0.27;49.70
1776;BME280;885;42.626;23.200;2023-02-12T00:06:07;75319.53;;;-0.15;51.72
1776;BME280;885;42.626;23.200;2023-02-12T00:08:35;75309.97;;;-0.34;55.03
1776;BME280;885;42.626;23.200;2023-02-12T00:11:10;75277.16;;;-0.34;54.10
1776;BME280;885;42.626;23.200;2023-02-12T00:13:37;75278.13;;;-0.35;50.96
1776;BME280;885;42.626;23.200;2023-02-12T00:16:05;75293.41;;;-0.20;49.65
1776;BME280;885;42.626;23.200;2023-02-12T00:18:32;75363.13;;;0.06;52.94
1776;BME280;885;42.626;23.200;2023-02-12T00:21:00;75331.56;;;-0.05;51.14
1776;BME280;885;42.626;23.200;2023-02-12T00:23:27;75277.16;;;-0.34;52.67
1776;BME280;885;42.626;23.200;2023-02-12T00:25:54;75332.41;;;-0.02;49.98
1776;BME280;885;42.626;23.200;2023-02-12T00:28:21;75368.06;;;0.24;48.88
1776;BME280;885;42.626;23.200;2023-02-12T00:30:48;75403.13;;;0.23;49.87
1776;BME280;885;42.626;23.200;2023-02-12T00:33:15;75389.47;;;0.14;48.95
1776;BME280;885;42.626;23.200;2023-02-12T00:35:42;75437.09;;;0.16;52.11
1776;BME280;885;42.626;23.200;2023-02-12T00:38:10;75378.94;;;-0.05;52.77
1776;BME280;885;42.626;23.200;2023-02-12T00:40:37;75290.78;;;-0.25;51.52
1776;BME280;885;42.626;23.200;2023-02-12T00:43:03;75357.25;;;-0.04;50.48
1776;BME280;885;42.626;23.200;2023-02-12T00:45:30;75290.94;;;-0.11;52.33
1776;BME280;885;42.626;23.200;2023-02-12T00:47:57;75337.53;;;-0.25;53.73
1776;BME280;885;42.626;23.200;2023-02-12T00:50:24;75354.25;;;-0.25;54.36
1776;BME280;885;42.626;23.200;2023-02-12T00:52:50;75307.09;;;-0.23;52.56
1776;BME280;885;42.626;23.200;2023-02-12T00:55:19;75344.53;;;-0.22;53.85
1776;BME280;885;42.626;23.200;2023-02-12T00:57:46;75273.09;;;-0.42;56.87
1776;BME280;885;42.626;23.200;2023-02-12T01:00:14;75236.84;;;-0.67;55.25
1776;BME280;885;42.626;23.200;2023-02-12T01:02:40;75294.41;;;-0.22;51.63
1776;BME280;885;42.626;23.200;2023-02-12T01:05:07;75353.53;;;0.05;50.71
1776;BME280;885;42.626;23.200;2023-02-12T01:07:34;75255.94;;;-0.47;58.88
1776;BME280;885;42.626;23.200;2023-02-12T01:10:03;75273.94;;;-0.57;61.04
1776;BME280;885;42.626;23.200;2023-02-12T01:12:32;75360.09;;;-0.53;63.87
1776;BME280;885;42.626;23.200;2023-02-12T01:14:59;75320.66;;;-0.58;62.97
1776;BME280;885;42.626;23.200;2023-02-12T01:17:26;75360.72;;;-0.64;65.53
1776;BME280;885;42.626;23.200;2023-02-12T01:19:56;75168.97;;;-1.17;63.45
1776;BME280;885;42.626;23.200;2023-02-12T01:22:23;75198.34;;;-1.00;59.89
1776;BME280;885;42.626;23.200;2023-02-12T01:24:49;75257.47;;;-0.73;57.04
1776;BME280;885;42.626;23.200;2023-02-12T01:27:17;75284.69;;;-0.37;54.44
1776;BME280;885;42.626;23.200;2023-02-12T01:29:47;75312.53;;;-0.18;55.05
1776;BME280;885;42.626;23.200;2023-02-12T01:32:14;75312.81;;;-0.27;54.51
1776;BME280;885;42.626;23.200;2023-02-12T01:34:40;75320.97;;;-0.30;53.75
1776;BME280;885;42.626;23.200;2023-02-12T01:37:07;75356.47;;;-0.19;55.10
1776;BME280;885;42.626;23.200;2023-02-12T01:39:34;75383.66;;;-0.26;57.34
1776;BME280;885;42.626;23.200;2023-02-12T01:42:03;75375.97;;;-0.19;58.27
1776;BME280;885;42.626;23.200;2023-02-12T01:44:31;75316.44;;;-0.24;55.69
1776;BME280;885;42.626;23.200;2023-02-12T01:47:02;75351.09;;;-0.23;58.47
1776;BME280;885;42.626;23.200;2023-02-12T01:49:34;75329.38;;;-0.23;54.94
1776;BME280;885;42.626;23.200;2023-02-12T01:52:08;75323.59;;;-0.44;58.91
1776;BME280;885;42.626;23.200;2023-02-12T01:54:41;75368.69;;;-0.32;61.27
1776;BME280;885;42.626;23.200;2023-02-12T01:57:10;75345.34;;;-0.19;57.92
1776;BME280;885;42.626;23.200;2023-02-12T01:59:38;75292.66;;;-0.72;64.31
1776;BME280;885;42.626;23.200;2023-02-12T02:02:08;75215.34;;;-0.90;59.88
1776;BME280;885;42.626;23.200;2023-02-12T02:04:37;75268.97;;;-0.75;63.43
1776;BME280;885;42.626;23.200;2023-02-12T02:07:07;75287.16;;;-0.65;60.93
1776;BME280;885;42.626;23.200;2023-02-12T02:09:39;75340.81;;;-0.50;62.06
1776;BME280;885;42.626;23.200;2023-02-12T02:12:07;75335.31;;;-0.62;61.05
1776;BME280;885;42.626;23.200;2023-02-12T02:14:53;75270.63;;;-0.69;60.52
1776;BME280;885;42.626;23.200;2023-02-12T02:17:34;75259.72;;;-0.67;59.41
1776;BME280;885;42.626;23.200;2023-02-12T02:20:40;75281.25;;;-0.63;60.01
1776;BME280;885;42.626;23.200;2023-02-12T02:23:33;75312.28;;;-0.58;60.29
1776;BME280;885;42.626;23.200;2023-02-12T02:26:37;75364.28;;;-0.49;61.35
1776;BME280;885;42.626;23.200;2023-02-12T02:32:22;75405.25;;;-0.64;70.13
1776;BME280;885;42.626;23.200;2023-02-12T02:34:59;75383.91;;;-0.54;63.10
1776;BME280;885;42.626;23.200;2023-02-12T02:37:31;75408.97;;;-0.54;67.23
1776;BME280;885;42.626;23.200;2023-02-12T02:40:03;75359.34;;;-0.79;67.39
1776;BME280;885;42.626;23.200;2023-02-12T02:42:38;75343.78;;;-0.85;66.16
1776;BME280;885;42.626;23.200;2023-02-12T02:45:11;75379.75;;;-0.69;68.98
1776;BME280;885;42.626;23.200;2023-02-12T02:47:42;75436.72;;;-0.61;66.87
1776;BME280;885;42.626;23.200;2023-02-12T02:50:12;75429.75;;;-0.46;63.39
1776;BME280;885;42.626;23.200;2023-02-12T02:52:44;75443.50;;;-0.30;62.75
1776;BME280;885;42.626;23.200;2023-02-12T02:55:16;75458.44;;;-0.13;61.80
1776;BME280;885;42.626;23.200;2023-02-12T02:57:47;75440.97;;;-0.09;61.46
1776;BME280;885;42.626;23.200;2023-02-12T03:00:19;75489.91;;;-0.10;61.66
1776;BME280;885;42.626;23.200;2023-02-12T03:02:53;75445.59;;;-0.19;63.00
1776;BME280;885;42.626;23.200;2023-02-12T03:05:25;75495.00;;;-0.15;63.59
1776;BME280;885;42.626;23.200;2023-02-12T03:07:58;75550.06;;;-0.04;65.69
1776;BME280;885;42.626;23.200;2023-02-12T03:10:29;75533.91;;;0.09;61.72
1776;BME280;885;42.626;23.200;2023-02-12T03:13:01;75564.56;;;0.09;61.93
1776;BME280;885;42.626;23.200;2023-02-12T03:15:33;75596.31;;;0.14;62.39
1776;BME280;885;42.626;23.200;2023-02-12T03:18:09;75504.50;;;-0.02;63.24
1776;BME280;885;42.626;23.200;2023-02-12T03:20:42;75541.63;;;0.20;61.48
1776;BME280;885;42.626;23.200;2023-02-12T03:23:13;75553.38;;;0.20;62.79
1776;BME280;885;42.626;23.200;2023-02-12T03:25:45;75604.66;;;0.14;64.34
1776;BME280;885;42.626;23.200;2023-02-12T03:28:15;75581.88;;;0.09;63.72
1776;BME280;885;42.626;23.200;2023-02-12T03:30:48;75595.81;;;0.21;65.10
1776;BME280;885;42.626;23.200;2023-02-12T03:33:24;75627.28;;;0.24;65.17
1776;BME280;885;42.626;23.200;2023-02-12T03:35:58;75623.72;;;0.39;61.70
1776;BME280;885;42.626;23.200;2023-02-12T03:38:33;75614.53;;;0.36;61.14
1776;BME280;885;42.626;23.200;2023-02-12T03:41:05;75614.16;;;0.38;62.15
1776;BME280;885;42.626;23.200;2023-02-12T03:43:42;75727.09;;;0.53;66.09
1776;BME280;885;42.626;23.200;2023-02-12T03:46:19;75650.41;;;0.38;65.19
1776;BME280;885;42.626;23.200;2023-02-12T03:48:56;75723.13;;;0.41;68.75
1776;BME280;885;42.626;23.200;2023-02-12T03:51:28;75706.28;;;0.34;67.82
1776;BME280;885;42.626;23.200;2023-02-12T03:53:56;75580.38;;;0.29;63.37
1776;BME280;885;42.626;23.200;2023-02-12T03:56:27;75630.25;;;0.38;63.51
1776;BME280;885;42.626;23.200;2023-02-12T03:58:57;75614.81;;;0.27;62.25
1776;BME280;885;42.626;23.200;2023-02-12T04:01:25;75596.16;;;0.19;62.41
1776;BME280;885;42.626;23.200;2023-02-12T04:03:54;75612.81;;;0.42;59.01
1776;BME280;885;42.626;23.200;2023-02-12T04:06:22;75593.69;;;0.40;58.92
1776;BME280;885;42.626;23.200;2023-02-12T04:08:50;75594.50;;;0.43;59.99
1776;BME280;885;42.626;23.200;2023-02-12T04:11:24;75607.81;;;0.42;60.05
1776;BME280;885;42.626;23.200;2023-02-12T04:14:07;75653.09;;;0.61;61.98
1776;BME280;885;42.626;23.200;2023-02-12T04:16:42;75732.41;;;0.62;65.66
1776;BME280;885;42.626;23.200;2023-02-12T04:19:15;75627.28;;;0.24;66.39
1776;BME280;885;42.626;23.200;2023-02-12T04:21:56;75631.28;;;0.25;62.26
1776;BME280;885;42.626;23.200;2023-02-12T04:24:38;75578.34;;;0.25;61.98
1776;BME280;885;42.626;23.200;2023-02-12T04:27:13;75608.44;;;0.43;60.97
1776;BME280;885;42.626;23.200;2023-02-12T04:29:48;75658.38;;;0.52;61.03
1776;BME280;885;42.626;23.200;2023-02-12T04:32:20;75677.16;;;0.44;65.38
1776;BME280;885;42.626;23.200;2023-02-12T04:34:55;75597.09;;;0.29;64.05
1776;BME280;885;42.626;23.200;2023-02-12T04:37:29;75589.84;;;0.23;61.31
1776;BME280;885;42.626;23.200;2023-02-12T04:39:59;75603.28;;;0.29;61.70
1776;BME280;885;42.626;23.200;2023-02-12T04:42:40;75544.50;;;0.27;61.35
1776;BME280;885;42.626;23.200;2023-02-12T04:45:09;75588.38;;;0.31;61.45
1776;BME280;885;42.626;23.200;2023-02-12T04:47:36;75587.63;;;0.35;59.08
1776;BME280;885;42.626;23.200;2023-02-12T04:50:05;75642.00;;;0.50;63.00
1776;BME280;885;42.626;23.200;2023-02-12T04:52:32;75673.25;;;0.50;63.08
1776;BME280;885;42.626;23.200;2023-02-12T04:54:58;75763.97;;;0.54;68.70
1776;BME280;885;42.626;23.200;2023-02-12T04:57:25;75716.44;;;0.47;66.07
1776;BME280;885;42.626;23.200;2023-02-12T04:59:52;75635.63;;;0.35;62.11
1776;BME280;885;42.626;23.200;2023-02-12T05:02:19;75643.31;;;0.58;60.52
1776;BME280;885;42.626;23.200;2023-02-12T05:04:47;75754.88;;;0.58;66.82
1776;BME280;885;42.626;23.200;2023-02-12T05:07:16;75724.88;;;0.65;62.19
1776;BME280;885;42.626;23.200;2023-02-12T05:09:42;75747.31;;;0.72;62.58
1776;BME280;885;42.626;23.200;2023-02-12T05:12:09;75763.06;;;0.74;64.94
1776;BME280;885;42.626;23.200;2023-02-12T05:14:36;75851.13;;;0.73;69.01
1776;BME280;885;42.626;23.200;2023-02-12T05:17:03;75827.84;;;0.63;70.17
1776;BME280;885;42.626;23.200;2023-02-12T05:19:30;75684.41;;;0.50;63.35
1776;BME280;885;42.626;23.200;2023-02-12T05:21:56;75703.38;;;0.38;66.10
1776;BME280;885;42.626;23.200;2023-02-12T05:24:24;75684.34;;;0.32;66.54
1776;BME280;885;42.626;23.200;2023-02-12T05:26:51;75688.00;;;0.35;65.08
1776;BME280;885;42.626;23.200;2023-02-12T05:29:18;75692.22;;;0.38;65.55
1776;BME280;885;42.626;23.200;2023-02-12T05:31:45;75735.88;;;0.40;66.60
1776;BME280;885;42.626;23.200;2023-02-12T05:34:12;75689.91;;;0.32;66.15
1776;BME280;885;42.626;23.200;2023-02-12T05:36:39;75712.00;;;0.29;67.72
1776;BME280;885;42.626;23.200;2023-02-12T05:39:06;75602.91;;;-0.11;68.41
1776;BME280;885;42.626;23.200;2023-02-12T05:41:34;75634.16;;;-0.10;70.22
1776;BME280;885;42.626;23.200;2023-02-12T05:44:01;75677.41;;;-0.07;71.30
1776;BME280;885;42.626;23.200;2023-02-12T05:46:28;75788.47;;;-0.05;72.81
1776;BME280;885;42.626;23.200;2023-02-12T05:48:55;75774.19;;;-0.03;72.91
1776;BME280;885;42.626;23.200;2023-02-12T05:51:24;75766.28;;;-0.21;74.70
1776;BME280;885;42.626;23.200;2023-02-12T05:53:55;75902.91;;;-0.14;76.36
1776;BME280;885;42.626;23.200;2023-02-12T05:56:25;75881.38;;;-0.06;75.39
1776;BME280;885;42.626;23.200;2023-02-12T05:58:56;75883.41;;;-0.25;77.25
1776;BME280;885;42.626;23.200;2023-02-12T06:01:25;75895.38;;;-0.34;78.22
1776;BME280;885;42.626;23.200;2023-02-12T06:03:52;75931.72;;;-0.54;79.11
1776;BME280;885;42.626;23.200;2023-02-12T06:06:19;75925.03;;;-0.60;80.13
1776;BME280;885;42.626;23.200;2023-02-12T06:08:47;75996.56;;;-0.63;80.29
1776;BME280;885;42.626;23.200;2023-02-12T06:11:15;76089.97;;;-0.48;80.17
1776;BME280;885;42.626;23.200;2023-02-12T06:13:42;76178.97;;;-0.43;81.06
1776;BME280;885;42.626;23.200;2023-02-12T06:16:17;76208.53;;;-0.69;82.05
1776;BME280;885;42.626;23.200;2023-02-12T06:18:44;76330.50;;;-0.58;82.57
1776;BME280;885;42.626;23.200;2023-02-12T06:21:11;76380.91;;;-0.56;83.31
1776;BME280;885;42.626;23.200;2023-02-12T06:23:37;76463.63;;;-0.63;83.73
1776;BME280;885;42.626;23.200;2023-02-12T06:26:04;76578.03;;;-0.61;84.35
1776;BME280;885;42.626;23.200;2023-02-12T06:28:31;76693.41;;;-0.60;84.95
1776;BME280;885;42.626;23.200;2023-02-12T06:30:58;76737.53;;;-0.83;86.21
1776;BME280;885;42.626;23.200;2023-02-12T06:33:26;77062.84;;;-0.81;87.74
1776;BME280;885;42.626;23.200;2023-02-12T06:35:53;77618.34;;;-0.87;89.41
1776;BME280;885;42.626;23.200;2023-02-12T06:38:19;78453.16;;;-0.89;90.35
1776;BME280;885;42.626;23.200;2023-02-12T06:40:46;79598.63;;;-0.62;91.06
1776;BME280;885;42.626;23.200;2023-02-12T06:43:13;81751.06;;;-0.74;92.88
1776;BME280;885;42.626;23.200;2023-02-12T06:45:39;86275.41;;;-0.31;93.67
1776;BME280;885;42.626;23.200;2023-02-12T06:48:06;85714.25;;;-0.35;91.95
1776;BME280;885;42.626;23.200;2023-02-12T06:50:34;86268.28;;;-0.14;91.15
1776;BME280;885;42.626;23.200;2023-02-12T06:53:01;84611.97;;;-0.02;89.34
1776;BME280;885;42.626;23.200;2023-02-12T06:55:28;83929.84;;;-0.29;89.36
1776;BME280;885;42.626;23.200;2023-02-12T06:57:54;84845.41;;;-0.33;90.39
1776;BME280;885;42.626;23.200;2023-02-12T07:00:22;84731.59;;;-0.31;90.09
1776;BME280;885;42.626;23.200;2023-02-12T07:02:52;85250.69;;;-0.27;89.82
1776;BME280;885;42.626;23.200;2023-02-12T07:05:19;84861.94;;;-0.03;88.96
1776;BME280;885;42.626;23.200;2023-02-12T07:07:47;85103.88;;;0.09;88.54
1776;BME280;885;42.626;23.200;2023-02-12T07:10:14;84997.50;;;0.17;88.84
1776;BME280;885;42.626;23.200;2023-02-12T07:12:41;83817.94;;;0.21;86.45
1776;BME280;885;42.626;23.200;2023-02-12T07:15:08;83978.78;;;0.30;86.87
1776;BME280;885;42.626;23.200;2023-02-12T07:17:35;83285.25;;;0.44;86.31
1776;BME280;885;42.626;23.200;2023-02-12T07:20:02;82913.56;;;0.36;86.19
1776;BME280;885;42.626;23.200;2023-02-12T07:22:29;82429.84;;;0.44;84.75
1776;BME280;885;42.626;23.200;2023-02-12T07:24:57;82465.13;;;0.09;86.03
1776;BME280;885;42.626;23.200;2023-02-12T07:27:24;82465.94;;;0.08;85.76
1776;BME280;885;42.626;23.200;2023-02-12T07:29:51;82853.97;;;0.18;87.12
1776;BME280;885;42.626;23.200;2023-02-12T07:32:17;83199.13;;;0.36;86.93
1776;BME280;885;42.626;23.200;2023-02-12T07:34:45;82958.69;;;0.51;85.78
1776;BME280;885;42.626;23.200;2023-02-12T07:37:12;82739.47;;;0.50;85.91
1776;BME280;885;42.626;23.200;2023-02-12T07:39:39;82530.75;;;0.48;85.09
1776;BME280;885;42.626;23.200;2023-02-12T07:42:07;82491.91;;;0.25;86.12
1776;BME280;885;42.626;23.200;2023-02-12T07:44:34;82892.97;;;0.31;86.79
1776;BME280;885;42.626;23.200;2023-02-12T07:47:00;82858.50;;;0.34;85.62
1776;BME280;885;42.626;23.200;2023-02-12T07:49:28;83067.78;;;0.49;85.72
1776;BME280;885;42.626;23.200;2023-02-12T07:51:54;83397.19;;;0.65;86.04
1776;BME280;885;42.626;23.200;2023-02-12T07:54:21;83630.50;;;0.66;86.65
1776;BME280;885;42.626;23.200;2023-02-12T07:56:48;82343.00;;;0.29;85.79
1776;BME280;885;42.626;23.200;2023-02-12T07:59:18;82877.66;;;0.40;86.22
1776;BME280;885;42.626;23.200;2023-02-12T08:01:46;83051.13;;;0.47;86.37
1776;BME280;885;42.626;23.200;2023-02-12T08:04:15;82858.25;;;0.59;85.70
1776;BME280;885;42.626;23.200;2023-02-12T08:06:43;82751.94;;;0.72;84.64
1776;BME280;885;42.626;23.200;2023-02-12T08:09:13;82772.00;;;0.85;83.84
1776;BME280;885;42.626;23.200;2023-02-12T08:11:41;82721.00;;;0.95;83.76
1776;BME280;885;42.626;23.200;2023-02-12T08:14:10;82625.75;;;1.08;83.14
1776;BME280;885;42.626;23.200;2023-02-12T08:16:40;82798.84;;;1.12;84.56
1776;BME280;885;42.626;23.200;2023-02-12T08:19:08;82825.50;;;1.00;84.39
1776;BME280;885;42.626;23.200;2023-02-12T08:21:35;82838.66;;;1.02;84.88
1776;BME280;885;42.626;23.200;2023-02-12T08:24:02;82610.13;;;0.92;84.82
1776;BME280;885;42.626;23.200;2023-02-12T08:26:32;82726.47;;;0.87;85.66
1776;BME280;885;42.626;23.200;2023-02-12T08:29:01;82975.53;;;0.93;85.30
1776;BME280;885;42.626;23.200;2023-02-12T08:31:29;82959.97;;;1.07;84.18
1776;BME280;885;42.626;23.200;2023-02-12T08:33:58;82634.19;;;0.97;84.10
1776;BME280;885;42.626;23.200;2023-02-12T08:36:26;82552.97;;;0.99;84.61
1776;BME280;885;42.626;23.200;2023-02-12T08:38:56;82623.78;;;1.06;83.99
1776;BME280;885;42.626;23.200;2023-02-12T08:41:25;82719.91;;;1.01;85.14
1776;BME280;885;42.626;23.200;2023-02-12T08:43:54;82564.75;;;0.91;84.48
1776;BME280;885;42.626;23.200;2023-02-12T08:46:22;82529.34;;;0.68;85.78
1776;BME280;885;42.626;23.200;2023-02-12T08:48:51;82893.78;;;0.71;86.18
1776;BME280;885;42.626;23.200;2023-02-12T08:51:21;82804.13;;;0.65;85.86
1776;BME280;885;42.626;23.200;2023-02-12T08:53:51;83095.94;;;0.68;86.34
1776;BME280;885;42.626;23.200;2023-02-12T08:56:18;83508.75;;;0.57;86.88
1776;BME280;885;42.626;23.200;2023-02-12T08:58:45;83771.09;;;0.63;87.44
1776;BME280;885;42.626;23.200;2023-02-12T09:01:15;84103.53;;;0.67;87.76
1776;BME280;885;42.626;23.200;2023-02-12T09:03:42;84164.63;;;0.60;87.77
1776;BME280;885;42.626;23.200;2023-02-12T09:06:09;84957.31;;;0.74;87.79
1776;BME280;885;42.626;23.200;2023-02-12T09:08:38;85312.50;;;0.72;88.54
1776;BME280;885;42.626;23.200;2023-02-12T09:11:06;85398.16;;;0.86;87.31
1776;BME280;885;42.626;23.200;2023-02-12T09:13:33;85284.91;;;0.85;87.03
1776;BME280;885;42.626;23.200;2023-02-12T09:16:01;85518.97;;;0.92;87.02
1776;BME280;885;42.626;23.200;2023-02-12T09:18:28;85663.06;;;0.91;87.54
1776;BME280;885;42.626;23.200;2023-02-12T09:20:59;86010.16;;;0.77;88.88
1776;BME280;885;42.626;23.200;2023-02-12T09:23:26;87563.03;;;0.37;90.73
1776;BME280;885;42.626;23.200;2023-02-12T09:25:55;88750.75;;;0.78;88.88
1776;BME280;885;42.626;23.200;2023-02-12T09:28:21;88611.03;;;0.86;89.38
1776;BME280;885;42.626;23.200;2023-02-12T09:30:48;88252.56;;;0.78;88.33
1776;BME280;885;42.626;23.200;2023-02-12T09:33:16;88146.31;;;0.82;88.64
1776;BME280;885;42.626;23.200;2023-02-12T09:35:42;88706.56;;;0.74;89.73
1776;BME280;885;42.626;23.200;2023-02-12T09:38:09;89468.97;;;0.83;89.27
1776;BME280;885;42.626;23.200;2023-02-12T09:40:42;89490.78;;;0.87;89.21
1776;BME280;885;42.626;23.200;2023-02-12T09:43:16;90153.06;;;0.88;89.28
1776;BME280;885;42.626;23.200;2023-02-12T09:45:48;90719.13;;;0.82;89.51
1776;BME280;885;42.626;23.200;2023-02-12T09:48:30;90964.44;;;0.75;89.63
1776;BME280;885;42.626;23.200;2023-02-12T09:51:02;91474.31;;;0.77;90.03
1776;BME280;885;42.626;23.200;2023-02-12T09:53:34;91956.28;;;0.72;90.44
1776;BME280;885;42.626;23.200;2023-02-12T09:56:02;93177.88;;;0.74;90.93
1776;BME280;885;42.626;23.200;2023-02-12T09:58:37;93397.50;;;0.58;90.28
1776;BME280;885;42.626;23.200;2023-02-12T10:01:10;94950.22;;;0.62;90.57
1776;BME280;885;42.626;23.200;2023-02-12T10:03:38;96921.59;;;0.75;90.74
1776;BME280;885;42.626;23.200;2023-02-12T10:06:07;96618.00;;;0.84;90.08
1776;BME280;885;42.626;23.200;2023-02-12T10:08:52;96246.38;;;0.88;90.20
1776;BME280;885;42.626;23.200;2023-02-12T10:11:44;96672.75;;;0.97;89.71
1776;BME280;885;42.626;23.200;2023-02-12T10:14:27;96838.22;;;1.10;89.75
1776;BME280;885;42.626;23.200;2023-02-12T10:17:05;96115.38;;;1.21;88.69
1776;BME280;885;42.626;23.200;2023-02-12T10:19:48;95374.28;;;1.34;87.98
1776;BME280;885;42.626;23.200;2023-02-12T10:22:22;94955.69;;;1.35;88.17
1776;BME280;885;42.626;23.200;2023-02-12T10:25:02;94302.91;;;1.43;87.32
1776;BME280;885;42.626;23.200;2023-02-12T10:27:38;93874.97;;;1.42;87.77
1776;BME280;885;42.626;23.200;2023-02-12T10:30:17;94436.34;;;1.44;87.94
1776;BME280;885;42.626;23.200;2023-02-12T10:32:46;95093.00;;;1.55;87.88
1776;BME280;885;42.626;23.200;2023-02-12T10:35:17;94705.94;;;1.57;88.56
1776;BME280;885;42.626;23.200;2023-02-12T10:37:50;94615.59;;;1.65;87.91
1776;BME280;885;42.626;23.200;2023-02-12T10:40:22;93771.00;;;1.67;87.20
1776;BME280;885;42.626;23.200;2023-02-12T10:42:51;93641.13;;;1.53;88.05
1776;BME280;885;42.626;23.200;2023-02-12T10:45:21;94095.06;;;1.41;88.62
1776;BME280;885;42.626;23.200;2023-02-12T10:47:52;95323.38;;;1.21;90.54
1776;BME280;885;42.626;23.200;2023-02-12T10:50:27;97654.44;;;1.43;89.65
1776;BME280;885;42.626;23.200;2023-02-12T10:53:00;98220.78;;;1.77;89.38
1776;BME280;885;42.626;23.200;2023-02-12T10:55:30;99326.50;;;2.18;87.75
1776;BME280;885;42.626;23.200;2023-02-12T10:57:58;96451.59;;;2.46;85.54
1776;BME280;885;42.626;23.200;2023-02-12T11:00:29;96148.22;;;2.77;84.23
1776;BME280;885;42.626;23.200;2023-02-12T11:03:03;96569.19;;;3.07;84.74
1776;BME280;885;42.626;23.200;2023-02-12T11:05:32;95981.63;;;3.43;82.58
1776;BME280;885;42.626;23.200;2023-02-12T11:07:59;94534.22;;;3.78;79.53
1776;BME280;885;42.626;23.200;2023-02-12T11:10:28;92955.44;;;3.82;79.30
1776;BME280;885;42.626;23.200;2023-02-12T11:12:56;92121.56;;;3.86;78.44
1776;BME280;885;42.626;23.200;2023-02-12T11:15:25;91393.41;;;3.79;78.68
1776;BME280;885;42.626;23.200;2023-02-12T11:17:58;90688.34;;;3.64;78.85
1776;BME280;885;42.626;23.200;2023-02-12T11:20:27;90122.41;;;3.54;79.22
1776;BME280;885;42.626;23.200;2023-02-12T11:22:57;89940.91;;;3.51;79.14
1776;BME280;885;42.626;23.200;2023-02-12T11:25:25;89224.88;;;3.40;78.83
1776;BME280;885;42.626;23.200;2023-02-12T11:28:13;89260.66;;;3.38;79.41
1776;BME280;885;42.626;23.200;2023-02-12T11:30:51;89832.03;;;3.54;79.69
1776;BME280;885;42.626;23.200;2023-02-12T11:33:31;90022.91;;;3.46;80.63
1776;BME280;885;42.626;23.200;2023-02-12T11:36:01;89929.78;;;3.38;81.27
1776;BME280;885;42.626;23.200;2023-02-12T11:38:34;90193.94;;;3.49;80.80
1776;BME280;885;42.626;23.200;2023-02-12T11:41:06;89988.06;;;3.53;80.06
1776;BME280;885;42.626;23.200;2023-02-12T11:43:34;90409.72;;;3.62;80.34
1776;BME280;885;42.626;23.200;2023-02-12T11:46:04;89605.84;;;3.61;78.86
1776;BME280;885;42.626;23.200;2023-02-12T11:48:36;89906.88;;;3.80;78.88
1776;BME280;885;42.626;23.200;2023-02-12T11:51:08;90228.53;;;4.00;78.03
1776;BME280;885;42.626;23.200;2023-02-12T11:53:37;89169.78;;;3.80;77.24
1776;BME280;885;42.626;23.200;2023-02-12T11:56:07;88360.63;;;3.49;78.77
1776;BME280;885;42.626;23.200;2023-02-12T11:58:36;87897.31;;;3.19;79.80
1776;BME280;885;42.626;23.200;2023-02-12T12:01:07;88837.56;;;3.37;81.41
1776;BME280;885;42.626;23.200;2023-02-12T12:03:42;88784.13;;;3.35;81.01
1776;BME280;885;42.626;23.200;2023-02-12T12:06:22;87912.00;;;3.12;80.25
1776;BME280;885;42.626;23.200;2023-02-12T12:08:53;88303.00;;;3.00;83.23
1776;BME280;885;42.626;23.200;2023-02-12T12:11:25;89025.97;;;3.13;82.75
1776;BME280;885;42.626;23.200;2023-02-12T12:14:00;89481.13;;;3.31;82.31
1776;BME280;885;42.626;23.200;2023-02-12T12:16:32;89178.44;;;3.37;81.34
1776;BME280;885;42.626;23.200;2023-02-12T12:19:22;89598.03;;;3.38;82.41
1776;BME280;885;42.626;23.200;2023-02-12T12:22:13;89407.31;;;3.30;82.30
1776;BME280;885;42.626;23.200;2023-02-12T12:24:52;89634.34;;;3.32;82.67
1776;BME280;885;42.626;23.200;2023-02-12T12:27:26;89050.66;;;3.16;82.14
1776;BME280;885;42.626;23.200;2023-02-12T12:30:19;88966.03;;;3.04;83.07
1776;BME280;885;42.626;23.200;2023-02-12T12:32:48;88914.34;;;3.15;81.65
1776;BME280;885;42.626;23.200;2023-02-12T12:35:28;89052.38;;;3.28;81.01
1776;BME280;885;42.626;23.200;2023-02-12T12:38:05;89052.53;;;3.34;81.05
1776;BME280;885;42.626;23.200;2023-02-12T12:40:44;88924.56;;;3.31;81.00
1776;BME280;885;42.626;23.200;2023-02-12T12:43:13;88606.97;;;3.31;80.12
1776;BME280;885;42.626;23.200;2023-02-12T12:46:04;88378.69;;;3.34;80.06
1776;BME280;885;42.626;23.200;2023-02-12T12:48:47;88434.28;;;3.42;79.37
1776;BME280;885;42.626;23.200;2023-02-12T12:51:31;88523.31;;;3.29;80.88
1776;BME280;885;42.626;23.200;2023-02-12T12:54:12;88770.63;;;3.29;81.49
1776;BME280;885;42.626;23.200;2023-02-12T12:56:53;88974.44;;;3.30;81.53
1776;BME280;885;42.626;23.200;2023-02-12T12:59:36;88975.97;;;3.35;81.72
1776;BME280;885;42.626;23.200;2023-02-12T13:02:39;88659.66;;;3.30;81.35
1776;BME280;885;42.626;23.200;2023-02-12T13:05:39;88640.66;;;3.29;81.51
1776;BME280;885;42.626;23.200;2023-02-12T13:08:16;88547.09;;;3.22;81.78
1776;BME280;885;42.626;23.200;2023-02-12T13:10:48;88632.13;;;3.22;81.26
1776;BME280;885;42.626;23.200;2023-02-12T13:13:23;88541.41;;;3.18;81.97
1776;BME280;885;42.626;23.200;2023-02-12T13:16:00;88280.56;;;3.02;82.79
1776;BME280;885;42.626;23.200;2023-02-12T13:18:36;88215.13;;;2.94;83.35
1776;BME280;885;42.626;23.200;2023-02-12T13:21:14;88548.78;;;2.99;82.87
1776;BME280;885;42.626;23.200;2023-02-12T13:23:49;88619.03;;;3.01;83.29
1776;BME280;885;42.626;23.200;2023-02-12T13:26:24;88233.31;;;2.89;82.87
1776;BME280;885;42.626;23.200;2023-02-12T13:28:58;88993.94;;;2.96;84.03
1776;BME280;885;42.626;23.200;2023-02-12T13:31:28;88636.34;;;2.90;84.20
1776;BME280;885;42.626;23.200;2023-02-12T13:33:58;89096.69;;;3.03;83.75
1776;BME280;885;42.626;23.200;2023-02-12T13:36:26;89041.91;;;3.04;84.06
1776;BME280;885;42.626;23.200;2023-02-12T13:38:57;88994.03;;;3.00;83.97
1776;BME280;885;42.626;23.200;2023-02-12T13:41:26;89485.78;;;3.02;84.20
1776;BME280;885;42.626;23.200;2023-02-12T13:44:04;90128.63;;;3.19;83.84
1776;BME280;885;42.626;23.200;2023-02-12T13:46:39;91426.75;;;3.73;82.17
1776;BME280;885;42.626;23.200;2023-02-12T13:49:16;91333.81;;;4.06;79.81
1776;BME280;885;42.626;23.200;2023-02-12T13:51:46;93170.38;;;4.62;79.01
1776;BME280;885;42.626;23.200;2023-02-12T13:54:23;99703.13;;;6.59;73.00